createdAt,value
2022-12-08T00:01:13.524Z,6.88
2022-12-08T00:03:40.108Z,8.90
2022-12-08T00:06:25.521Z,6.10
2022-12-08T00:09:10.266Z,6.82
2022-12-08T00:11:36.784Z,5.07
2022-12-08T00:14:03.337Z,6.03
2022-12-08T00:16:29.690Z,5.22
2022-12-08T00:18:56.086Z,6.18
2022-12-08T00:21:22.478Z,3.70
2022-12-08T00:23:48.828Z,4.65
2022-12-08T00:26:15.082Z,5.80
2022-12-08T00:28:41.323Z,7.47
2022-12-08T00:31:08.720Z,9.55
2022-12-08T00:33:35.011Z,7.30
2022-12-08T00:36:08.071Z,4.50
2022-12-08T00:38:34.704Z,6.72
2022-12-08T00:41:00.935Z,5.93
2022-12-08T00:43:27.298Z,15.13
2022-12-08T00:45:53.691Z,5.97
2022-12-08T00:48:20.065Z,3.55
2022-12-08T00:50:46.295Z,8.35
2022-12-08T00:53:12.641Z,3.85
2022-12-08T00:55:38.939Z,7.78
2022-12-08T00:58:05.221Z,6.25
2022-12-08T01:00:31.469Z,4.28
2022-12-08T01:02:57.725Z,4.38
2022-12-08T01:05:24.090Z,5.30
2022-12-08T01:07:50.385Z,3.65
2022-12-08T01:10:16.722Z,3.90
2022-12-08T01:12:42.987Z,6.05
2022-12-08T01:15:09.458Z,6.90
2022-12-08T01:17:36.799Z,5.95
2022-12-08T01:20:03.958Z,5.40
2022-12-08T01:22:30.338Z,6.88
2022-12-08T01:24:56.650Z,4.25
2022-12-08T01:27:22.932Z,3.05
2022-12-08T01:29:49.175Z,3.13
2022-12-08T01:32:15.389Z,7.82
2022-12-08T01:34:41.678Z,2.20
2022-12-08T01:37:07.918Z,2.75
2022-12-08T01:39:34.697Z,3.22
2022-12-08T01:42:00.919Z,2.60
2022-12-08T01:44:27.199Z,6.57
2022-12-08T01:46:54.102Z,4.13
2022-12-08T01:49:31.340Z,3.05
2022-12-08T01:52:04.779Z,5.00
2022-12-08T01:54:36.802Z,3.22
2022-12-08T01:57:07.112Z,7.10
2022-12-08T01:59:35.146Z,4.72
2022-12-08T02:02:01.756Z,3.35
2022-12-08T02:04:28.088Z,3.17
2022-12-08T02:06:54.598Z,4.75
2022-12-08T02:09:21.282Z,2.47
2022-12-08T02:11:48.167Z,6.38
2022-12-08T02:14:14.585Z,5.35
2022-12-08T02:16:58.826Z,3.50
2022-12-08T02:19:43.526Z,5.70
2022-12-08T02:22:12.644Z,2.72
2022-12-08T02:24:41.823Z,4.78
2022-12-08T02:27:08.129Z,7.32
2022-12-08T02:30:12.740Z,6.70
2022-12-08T02:32:57.799Z,10.48
2022-12-08T02:35:24.270Z,5.32
2022-12-08T02:37:57.352Z,5.28
2022-12-08T02:40:43.888Z,13.80
2022-12-08T02:43:14.374Z,8.82
2022-12-08T02:45:47.623Z,6.80
2022-12-08T02:48:14.378Z,6.97
2022-12-08T02:50:40.638Z,7.10
2022-12-08T02:55:50.987Z,8.13
2022-12-08T02:58:20.114Z,9.68
2022-12-08T03:00:58.305Z,7.82
2022-12-08T03:03:24.577Z,6.55
2022-12-08T03:05:50.838Z,10.32
2022-12-08T03:08:22.926Z,7.13
2022-12-08T03:10:52.519Z,5.88
2022-12-08T03:13:21.236Z,4.15
2022-12-08T03:15:48.956Z,4.22
2022-12-08T03:18:16.497Z,3.95
2022-12-08T03:20:43.422Z,3.65
2022-12-08T03:23:11.498Z,4.35
2022-12-08T03:25:41.009Z,6.63
2022-12-08T03:28:07.483Z,3.85
2022-12-08T03:30:37.059Z,2.45
2022-12-08T03:33:17.840Z,5.47
2022-12-08T03:38:15.409Z,9.68
2022-12-08T03:40:41.798Z,2.22
2022-12-08T03:43:08.074Z,3.60
2022-12-08T03:45:34.369Z,5.18
2022-12-08T03:48:00.629Z,3.05
2022-12-08T03:50:27.110Z,3.55
2022-12-08T03:52:53.346Z,2.20
2022-12-08T03:55:21.320Z,3.80
2022-12-08T03:57:47.591Z,0.88
2022-12-08T04:00:14.989Z,1.20
2022-12-08T04:02:41.304Z,4.47
2022-12-08T04:05:07.806Z,3.67
2022-12-08T04:07:34.115Z,2.50
2022-12-08T04:10:00.393Z,3.67
2022-12-08T04:12:26.665Z,2.92
2022-12-08T04:14:52.928Z,1.90
2022-12-08T04:17:19.168Z,0.85
2022-12-08T04:19:45.445Z,3.90
2022-12-08T04:22:11.762Z,4.25
2022-12-08T04:24:37.983Z,1.65
2022-12-08T04:27:04.295Z,3.70
2022-12-08T04:29:30.662Z,2.72
2022-12-08T04:31:57.014Z,1.60
2022-12-08T04:34:23.331Z,2.85
2022-12-08T04:36:49.626Z,2.50
2022-12-08T04:39:15.902Z,3.03
2022-12-08T04:41:42.199Z,8.50
2022-12-08T04:44:08.491Z,2.47
2022-12-08T04:46:37.834Z,7.03
2022-12-08T04:49:07.984Z,5.10
2022-12-08T04:51:34.257Z,2.97
2022-12-08T04:54:00.538Z,3.78
2022-12-08T04:56:26.800Z,3.10
2022-12-08T04:58:53.096Z,2.08
2022-12-08T05:01:19.382Z,4.68
2022-12-08T05:03:45.641Z,2.83
2022-12-08T05:06:12.982Z,2.80
2022-12-08T05:08:39.225Z,5.07
2022-12-08T05:11:06.378Z,3.45
2022-12-08T05:13:32.771Z,2.42
2022-12-08T05:16:03.127Z,2.95
2022-12-08T05:18:29.386Z,2.90
2022-12-08T05:20:55.606Z,4.70
2022-12-08T05:23:21.878Z,2.17
2022-12-08T05:25:48.186Z,3.20
2022-12-08T05:28:40.192Z,3.53
2022-12-08T05:31:00.784Z,1.13
2022-12-08T05:33:27.097Z,1.85
2022-12-08T05:35:53.330Z,2.25
2022-12-08T05:38:20.308Z,4.70
2022-12-08T05:40:46.606Z,5.25
2022-12-08T05:43:12.852Z,4.07
2022-12-08T05:45:39.178Z,2.85
2022-12-08T05:48:05.604Z,2.90
2022-12-08T05:50:31.908Z,13.15
2022-12-08T05:52:58.243Z,2.42
2022-12-08T05:55:24.485Z,1.52
2022-12-08T05:57:50.730Z,0.75
2022-12-08T06:00:17.164Z,5.00
2022-12-08T06:02:43.534Z,4.75
2022-12-08T06:05:09.907Z,2.35
2022-12-08T06:07:36.186Z,1.75
2022-12-08T06:10:03.051Z,0.98
2022-12-08T06:12:29.596Z,1.65
2022-12-08T06:14:55.881Z,2.65
2022-12-08T06:17:22.166Z,1.35
2022-12-08T06:19:48.454Z,2.75
2022-12-08T06:22:14.775Z,3.28
2022-12-08T06:24:41.065Z,1.25
2022-12-08T06:27:07.374Z,2.58
2022-12-08T06:29:33.653Z,0.93
2022-12-08T06:31:59.936Z,6.22
2022-12-08T06:34:26.311Z,4.78
2022-12-08T06:36:52.607Z,3.58
2022-12-08T06:39:18.862Z,1.80
2022-12-08T06:42:14.483Z,1.45
2022-12-08T06:44:40.823Z,2.97
2022-12-08T06:47:07.081Z,4.53
2022-12-08T06:49:33.340Z,2.17
2022-12-08T06:51:59.580Z,3.13
2022-12-08T06:54:26.083Z,0.82
2022-12-08T06:56:52.326Z,1.63
2022-12-08T06:59:19.536Z,1.15
2022-12-08T07:01:46.344Z,2.45
2022-12-08T07:04:12.617Z,1.33
2022-12-08T07:06:38.954Z,1.38
2022-12-08T07:09:05.263Z,2.63
2022-12-08T07:11:31.513Z,2.03
2022-12-08T07:13:57.917Z,1.85
2022-12-08T07:16:24.410Z,5.22
2022-12-08T07:18:50.708Z,2.10
2022-12-08T07:21:17.507Z,2.83
2022-12-08T07:23:50.175Z,2.97
2022-12-08T07:26:20.435Z,4.70
2022-12-08T07:28:46.742Z,2.88
2022-12-08T07:31:23.821Z,3.42
2022-12-08T07:33:52.936Z,3.05
2022-12-08T07:36:19.325Z,2.53
2022-12-08T07:38:45.644Z,5.97
2022-12-08T07:41:13.365Z,2.30
2022-12-08T07:43:40.150Z,3.10
2022-12-08T07:46:06.445Z,1.85
2022-12-08T07:48:32.798Z,5.85
2022-12-08T07:51:02.768Z,3.38
2022-12-08T07:53:29.219Z,2.75
2022-12-08T07:55:55.545Z,2.30
2022-12-08T07:58:21.837Z,2.38
2022-12-08T08:00:48.212Z,1.90
2022-12-08T08:03:14.632Z,1.73
2022-12-08T08:05:40.894Z,3.08
2022-12-08T08:08:07.205Z,2.63
2022-12-08T08:10:33.490Z,1.23
2022-12-08T08:12:59.919Z,2.80
2022-12-08T08:15:27.410Z,1.52
2022-12-08T08:17:53.989Z,2.83
2022-12-08T08:20:20.890Z,1.17
2022-12-08T08:22:48.074Z,3.70
2022-12-08T08:25:15.255Z,1.85
2022-12-08T08:27:41.549Z,4.38
2022-12-08T08:30:09.056Z,1.88
2022-12-08T08:32:35.629Z,2.05
2022-12-08T08:35:01.977Z,1.38
2022-12-08T08:37:28.329Z,3.47
2022-12-08T08:39:54.961Z,2.08
2022-12-08T08:42:21.182Z,1.65
2022-12-08T08:44:47.530Z,2.35
2022-12-08T08:47:13.827Z,1.80
2022-12-08T08:49:40.107Z,1.92
2022-12-08T08:52:06.547Z,2.38
2022-12-08T08:54:33.156Z,2.05
2022-12-08T08:57:01.590Z,3.20
2022-12-08T08:59:28.251Z,2.67
2022-12-08T09:01:55.453Z,1.27
2022-12-08T09:04:22.372Z,4.72
2022-12-08T09:06:49.508Z,1.33
2022-12-08T09:09:16.477Z,0.93
2022-12-08T09:11:43.117Z,1.48
2022-12-08T09:14:11.366Z,1.05
2022-12-08T09:16:42.195Z,1.20
2022-12-08T09:19:09.166Z,1.10
2022-12-08T09:21:35.469Z,1.20
2022-12-08T09:24:01.844Z,1.10
2022-12-08T09:26:28.555Z,1.77
2022-12-08T09:28:55.429Z,0.75
2022-12-08T09:31:22.552Z,1.27
2022-12-08T09:33:51.417Z,1.48
2022-12-08T09:36:18.025Z,1.63
2022-12-08T09:38:44.328Z,0.90
2022-12-08T09:41:20.181Z,0.73
2022-12-08T09:43:57.924Z,1.02
2022-12-08T09:46:26.558Z,1.33
2022-12-08T09:48:57.665Z,0.85
2022-12-08T09:51:25.325Z,2.15
2022-12-08T09:53:56.431Z,1.10
2022-12-08T09:56:24.054Z,0.93
2022-12-08T09:58:51.864Z,1.70
2022-12-08T10:01:19.557Z,1.75
2022-12-08T10:03:46.345Z,1.48
2022-12-08T10:06:19.211Z,2.38
2022-12-08T10:08:49.866Z,1.27
2022-12-08T10:13:46.096Z,1.90
2022-12-08T10:16:25.404Z,3.88
2022-12-08T10:19:12.974Z,2.50
2022-12-08T10:21:39.794Z,4.28
2022-12-08T10:24:12.602Z,2.60
2022-12-08T10:26:39.064Z,6.22
2022-12-08T10:29:06.967Z,3.33
2022-12-08T10:31:33.308Z,3.58
2022-12-08T10:34:01.058Z,5.38
2022-12-08T10:36:47.099Z,1.88
2022-12-08T10:39:32.392Z,2.22
2022-12-08T10:42:08.222Z,1.60
2022-12-08T10:44:38.355Z,1.40
2022-12-08T10:47:11.430Z,1.27
2022-12-08T10:49:38.589Z,3.80
2022-12-08T10:52:09.176Z,2.38
2022-12-08T10:54:38.197Z,1.20
2022-12-08T10:57:04.478Z,6.35
2022-12-08T10:59:33.065Z,7.88
2022-12-08T11:02:00.108Z,3.92
2022-12-08T11:04:32.397Z,3.75
2022-12-08T11:06:58.654Z,1.20
2022-12-08T11:09:30.809Z,2.63
2022-12-08T11:11:58.510Z,3.22
2022-12-08T11:14:24.732Z,0.88
2022-12-08T11:16:53.592Z,2.80
2022-12-08T11:19:20.776Z,1.38
2022-12-08T11:21:47.582Z,2.67
2022-12-08T11:24:20.773Z,2.45
2022-12-08T11:27:05.394Z,1.83
2022-12-08T11:29:32.626Z,2.58
2022-12-08T11:32:14.374Z,2.75
2022-12-08T11:34:43.527Z,2.47
2022-12-08T11:37:22.916Z,1.45
2022-12-08T11:39:51.019Z,3.58
2022-12-08T11:42:20.453Z,1.63
2022-12-08T11:45:00.150Z,1.55
2022-12-08T11:47:28.444Z,1.65
2022-12-08T11:49:59.525Z,3.22
2022-12-08T11:52:42.061Z,1.98
2022-12-08T11:55:26.444Z,2.45
2022-12-08T11:57:54.709Z,3.33
2022-12-08T12:00:21.147Z,2.03
2022-12-08T12:02:51.275Z,1.35
2022-12-08T12:05:39.964Z,0.98
2022-12-08T12:08:18.825Z,1.83
2022-12-08T12:10:45.092Z,1.48
2022-12-08T12:13:29.954Z,1.83
2022-12-08T12:16:14.803Z,2.58
2022-12-08T12:18:55.881Z,1.33
2022-12-08T12:21:23.413Z,2.55
2022-12-08T12:23:54.283Z,1.05
2022-12-08T12:26:24.918Z,1.35
2022-12-08T12:28:57.478Z,3.85
2022-12-08T12:31:29.403Z,0.90
2022-12-08T12:34:03.405Z,0.95
2022-12-08T12:36:32.363Z,1.95
2022-12-08T12:39:01.965Z,1.52
2022-12-08T12:41:31.067Z,1.08
2022-12-08T12:44:09.213Z,2.08
2022-12-08T12:46:40.478Z,1.55
2022-12-08T12:49:25.646Z,2.05
2022-12-08T12:51:55.452Z,2.22
2022-12-08T12:54:22.887Z,2.40
2022-12-08T12:56:56.424Z,1.13
2022-12-08T12:59:22.649Z,1.55
2022-12-08T13:01:52.229Z,2.55
2022-12-08T13:04:18.728Z,0.82
2022-12-08T13:06:48.167Z,1.30
2022-12-08T13:09:21.893Z,1.35
2022-12-08T13:11:53.200Z,2.20
2022-12-08T13:14:26.526Z,1.23
2022-12-08T13:16:54.594Z,1.65
2022-12-08T13:19:21.291Z,4.13
2022-12-08T13:21:47.669Z,0.85
2022-12-08T13:24:19.799Z,0.70
2022-12-08T13:27:09.075Z,3.20
2022-12-08T13:29:37.233Z,2.03
2022-12-08T13:32:04.513Z,1.45
2022-12-08T13:34:49.251Z,2.17
2022-12-08T13:37:22.128Z,2.22
2022-12-08T13:39:53.289Z,1.60
2022-12-08T13:42:48.658Z,1.50
2022-12-08T13:45:27.897Z,2.70
2022-12-08T13:52:41.535Z,3.45
2022-12-08T13:57:02.427Z,2.90
2022-12-08T13:59:19.322Z,5.47
2022-12-08T14:01:47.107Z,6.88
2022-12-08T14:07:04.108Z,4.07
2022-12-08T14:09:36.965Z,2.58
2022-12-08T14:12:17.892Z,4.32
2022-12-08T14:15:02.373Z,3.92
2022-12-08T14:17:29.212Z,2.28
2022-12-08T14:20:00.015Z,6.60
2022-12-08T14:22:32.198Z,2.03
2022-12-08T14:24:58.498Z,3.20
2022-12-08T14:27:26.514Z,2.70
2022-12-08T14:29:55.647Z,4.78
2022-12-08T14:32:28.204Z,3.40
2022-12-08T14:35:06.701Z,6.25
2022-12-08T14:37:34.906Z,6.28
2022-12-08T14:40:05.015Z,4.10
2022-12-08T14:42:41.577Z,8.77
2022-12-08T14:45:10.655Z,4.78
2022-12-08T14:47:36.936Z,4.38
2022-12-08T14:50:04.725Z,4.03
2022-12-08T14:52:31.385Z,4.35
2022-12-08T14:54:58.082Z,5.80
2022-12-08T14:57:27.380Z,7.05
2022-12-08T14:59:53.687Z,4.05
2022-12-08T15:02:21.699Z,7.50
2022-12-08T15:04:58.479Z,7.88
2022-12-08T15:07:26.283Z,5.43
2022-12-08T15:10:07.947Z,7.07
2022-12-08T15:12:34.490Z,8.25
2022-12-08T15:15:09.649Z,6.88
2022-12-08T15:17:41.742Z,3.60
2022-12-08T15:20:33.182Z,6.40
2022-12-08T15:23:01.131Z,7.18
2022-12-08T15:25:27.434Z,5.47
2022-12-08T15:27:53.766Z,4.85
2022-12-08T15:30:20.281Z,4.35
2022-12-08T15:32:46.502Z,4.40
2022-12-08T15:35:13.390Z,6.35
2022-12-08T15:37:40.010Z,9.15
2022-12-08T15:40:07.238Z,4.80
2022-12-08T15:42:33.884Z,5.57
2022-12-08T15:45:00.124Z,6.50
2022-12-08T15:47:26.727Z,5.53
2022-12-08T15:49:53.048Z,9.40
2022-12-08T15:52:20.857Z,5.63
2022-12-08T15:54:47.158Z,7.90
2022-12-08T15:57:22.200Z,7.07
2022-12-08T15:59:56.172Z,7.43
2022-12-08T16:02:23.182Z,7.88
2022-12-08T16:07:38.257Z,8.98
2022-12-08T16:10:06.020Z,12.18
2022-12-08T16:15:57.109Z,8.02
2022-12-08T16:18:27.359Z,9.25
2022-12-08T16:23:44.712Z,8.77
2022-12-08T16:26:35.606Z,9.90
2022-12-08T16:29:02.278Z,5.97
2022-12-08T16:31:28.894Z,14.80
2022-12-08T16:33:55.323Z,10.75
2022-12-08T16:36:21.555Z,9.45
2022-12-08T16:38:47.786Z,9.68
2022-12-08T16:41:33.024Z,10.20
2022-12-08T16:44:03.790Z,11.68
2022-12-08T16:48:59.365Z,18.80
2022-12-08T16:51:27.345Z,16.85
2022-12-08T16:53:54.323Z,16.67
2022-12-08T16:56:24.075Z,21.38
2022-12-08T16:58:52.568Z,9.75
2022-12-08T17:01:19.371Z,14.68
2022-12-08T17:04:01.346Z,5.63
2022-12-08T17:06:32.149Z,5.93
2022-12-08T17:08:59.278Z,8.68
2022-12-08T17:11:28.287Z,5.75
2022-12-08T17:13:54.653Z,11.35
2022-12-08T17:16:21.628Z,7.78
2022-12-08T17:18:48.197Z,8.90
2022-12-08T17:21:15.394Z,9.70
2022-12-08T17:23:41.819Z,8.63
2022-12-08T17:26:08.210Z,8.50
2022-12-08T17:28:59.085Z,7.68
2022-12-08T17:31:24.678Z,9.70
2022-12-08T17:33:53.987Z,7.65
2022-12-08T17:36:21.811Z,9.82
2022-12-08T17:38:48.078Z,16.25
2022-12-08T17:41:14.309Z,13.77
2022-12-08T17:43:40.599Z,13.60
2022-12-08T17:46:06.930Z,11.85
2022-12-08T17:48:35.475Z,10.10
2022-12-08T17:51:01.951Z,17.42
2022-12-08T17:53:30.644Z,14.43
2022-12-08T17:55:59.234Z,12.23
2022-12-08T17:58:25.699Z,9.23
2022-12-08T18:00:52.336Z,10.68
2022-12-08T18:03:19.244Z,11.77
2022-12-08T18:05:45.824Z,14.88
2022-12-08T18:08:12.180Z,15.85
2022-12-08T18:10:38.697Z,14.30
2022-12-08T18:13:05.661Z,14.68
2022-12-08T18:15:37.476Z,14.43
2022-12-08T18:18:05.370Z,16.08
2022-12-08T18:20:31.714Z,14.98
2022-12-08T18:22:58.028Z,18.17
2022-12-08T18:25:24.495Z,17.83
2022-12-08T18:27:50.814Z,17.33
2022-12-08T18:30:18.033Z,19.73
2022-12-08T18:32:44.527Z,21.45
2022-12-08T18:35:11.526Z,22.88
2022-12-08T18:37:38.258Z,25.98
2022-12-08T18:40:04.941Z,23.45
2022-12-08T18:42:31.868Z,28.20
2022-12-08T18:45:02.724Z,40.03
2022-12-08T18:47:29.160Z,24.25
2022-12-08T18:49:55.530Z,37.60
2022-12-08T18:52:28.167Z,26.67
2022-12-08T18:55:06.268Z,25.73
2022-12-08T18:57:33.371Z,28.70
2022-12-08T18:59:59.669Z,19.45
2022-12-08T19:02:26.109Z,21.27
2022-12-08T19:04:55.110Z,22.85
2022-12-08T19:07:21.434Z,21.67
2022-12-08T19:09:47.734Z,24.92
2022-12-08T19:12:14.265Z,25.23
2022-12-08T19:14:40.799Z,21.92
2022-12-08T19:17:07.604Z,26.23
2022-12-08T19:19:34.341Z,24.00
2022-12-08T19:22:00.601Z,22.83
2022-12-08T19:24:26.924Z,26.45
2022-12-08T19:26:53.225Z,25.50
2022-12-08T19:29:19.510Z,56.85
2022-12-08T19:31:45.910Z,31.80
2022-12-08T19:34:13.213Z,28.67
2022-12-08T19:36:42.618Z,26.60
2022-12-08T19:39:34.643Z,26.15
2022-12-08T19:42:19.283Z,22.85
2022-12-08T19:44:54.536Z,29.33
2022-12-08T19:47:21.899Z,24.23
2022-12-08T19:49:48.261Z,28.00
2022-12-08T19:52:14.807Z,24.42
2022-12-08T19:54:41.102Z,26.48
2022-12-08T19:57:07.388Z,20.75
2022-12-08T19:59:33.721Z,22.92
2022-12-08T20:02:00.165Z,22.33
2022-12-08T20:04:27.172Z,23.45
2022-12-08T20:06:54.842Z,31.83
2022-12-08T20:09:23.183Z,31.25
2022-12-08T20:11:50.712Z,27.38
2022-12-08T20:14:17.950Z,35.00
2022-12-08T20:16:44.256Z,28.70
2022-12-08T20:19:10.770Z,27.25
2022-12-08T20:21:38.618Z,26.77
2022-12-08T20:24:04.953Z,31.80
2022-12-08T20:26:31.462Z,31.13
2022-12-08T20:28:57.773Z,33.00
2022-12-08T20:31:25.652Z,31.75
2022-12-08T20:33:52.588Z,33.63
2022-12-08T20:36:19.923Z,29.35
2022-12-08T20:38:46.912Z,26.58
2022-12-08T20:41:15.832Z,28.75
2022-12-08T20:43:42.781Z,29.50
2022-12-08T20:46:09.920Z,30.90
2022-12-08T20:48:36.392Z,29.13
2022-12-08T20:51:03.936Z,30.90
2022-12-08T20:53:30.608Z,29.13
2022-12-08T20:55:56.914Z,29.65
2022-12-08T20:58:23.535Z,33.85
2022-12-08T21:00:50.287Z,34.53
2022-12-08T21:03:17.626Z,27.67
2022-12-08T21:05:51.367Z,29.45
2022-12-08T21:08:19.710Z,30.13
2022-12-08T21:10:52.259Z,31.13
2022-12-08T21:13:18.587Z,25.92
2022-12-08T21:15:46.494Z,32.95
2022-12-08T21:18:13.652Z,30.50
2022-12-08T21:20:40.207Z,31.35
2022-12-08T21:23:06.562Z,30.70
2022-12-08T21:25:33.006Z,36.92
2022-12-08T21:27:59.289Z,30.52
2022-12-08T21:30:26.320Z,31.17
2022-12-08T21:32:52.761Z,34.03
2022-12-08T21:35:19.243Z,34.88
2022-12-08T21:37:45.620Z,30.50
2022-12-08T21:40:12.382Z,34.17
2022-12-08T21:42:45.083Z,34.03
2022-12-08T21:45:12.634Z,33.70
2022-12-08T21:47:39.732Z,41.58
2022-12-08T21:50:06.842Z,32.47
2022-12-08T21:52:36.117Z,36.85
2022-12-08T21:55:02.482Z,39.33
2022-12-08T21:57:28.837Z,31.13
2022-12-08T21:59:55.317Z,36.67
2022-12-08T22:02:22.876Z,33.42
2022-12-08T22:04:50.150Z,36.50
2022-12-08T22:07:17.034Z,34.17
2022-12-08T22:09:43.591Z,40.75
2022-12-08T22:12:11.847Z,43.10
2022-12-08T22:14:39.267Z,33.67
2022-12-08T22:17:06.136Z,33.13
2022-12-08T22:19:32.675Z,32.60
2022-12-08T22:21:58.973Z,32.83
2022-12-08T22:24:25.241Z,31.50
2022-12-08T22:26:51.795Z,38.80
2022-12-08T22:29:18.037Z,33.05
2022-12-08T22:31:44.340Z,37.65
2022-12-08T22:34:10.868Z,32.50
2022-12-08T22:36:37.315Z,38.05
2022-12-08T22:39:04.129Z,34.25
2022-12-08T22:41:30.468Z,35.70
2022-12-08T22:43:56.937Z,37.33
2022-12-08T22:46:24.614Z,37.63
2022-12-08T22:48:51.556Z,36.22
2022-12-08T22:51:18.174Z,37.33
2022-12-08T22:53:44.777Z,38.10
2022-12-08T22:56:12.078Z,36.42
2022-12-08T22:58:39.145Z,38.47
2022-12-08T23:01:05.969Z,39.03
2022-12-08T23:03:32.566Z,36.20
2022-12-08T23:05:59.200Z,40.40
2022-12-08T23:08:25.672Z,33.90
2022-12-08T23:10:53.223Z,36.30
2022-12-08T23:13:20.175Z,32.60
2022-12-08T23:15:46.452Z,37.28
2022-12-08T23:18:14.739Z,36.05
2022-12-08T23:20:41.449Z,35.35
2022-12-08T23:23:07.953Z,33.70
2022-12-08T23:25:34.193Z,35.33
2022-12-08T23:28:00.474Z,34.42
2022-12-08T23:30:26.774Z,34.83
2022-12-08T23:32:56.414Z,33.83
2022-12-08T23:35:22.874Z,35.28
2022-12-08T23:37:49.179Z,38.53
2022-12-08T23:40:15.648Z,39.88
2022-12-08T23:42:42.051Z,39.10
2022-12-08T23:45:09.003Z,33.28
2022-12-08T23:47:35.787Z,34.35
2022-12-08T23:50:02.503Z,38.80
2022-12-08T23:52:29.122Z,46.53
2022-12-08T23:54:55.590Z,32.78
2022-12-08T23:57:21.823Z,37.30
2022-12-08T23:59:48.138Z,41.75
